Time;durP1;ratioP1;P1;durP2;ratioP2;P2;SDS_P1;SDS_P2;PMS_P1;PMS_P2;Temp;Humidity;BMP_temperature;BMP_pressure;BME280_temperature;BME280_humidity;BME280_pressure;Samples;Min_cycle;Max_cycle;Signal;HPM_P1;HPM_P2
2024/04/06 00:00:24;;;;;;;8.38;3.53;;;1.70;79.30;;;;;;5009525;28;20030;-83
2024/04/06 00:02:50;;;;;;;6.93;3.22;;;1.80;78.70;;;;;;5013259;28;20084;-79
2024/04/06 00:05:18;;;;;;;8.23;4.25;;;1.80;78.80;;;;;;4993079;28;20044;-77
2024/04/06 00:07:43;;;;;;;;;;;1.80;78.80;;;;;;5013508;28;20097;-76
2024/04/06 00:10:09;;;;;;;8.60;4.68;;;1.90;78.70;;;;;;5012923;28;20000;-78
2024/04/06 00:12:35;;;;;;;6.13;3.72;;;1.90;78.70;;;;;;5012906;28;20064;-77
2024/04/06 00:15:01;;;;;;;5.20;3.60;;;1.90;78.70;;;;;;5009910;28;20053;-78
2024/04/06 00:17:26;;;;;;;6.72;4.30;;;1.90;78.80;;;;;;5012625;28;20026;-76
2024/04/06 00:19:52;;;;;;;6.88;3.65;;;1.80;79.10;;;;;;4994649;28;20058;-79
2024/04/06 00:22:18;;;;;;;6.57;4.32;;;1.80;79.10;;;;;;5012715;28;20072;-77
2024/04/06 00:24:44;;;;;;;7.40;4.47;;;1.80;79.20;;;;;;5012807;28;20038;-77
2024/04/06 00:27:09;;;;;;;6.10;3.95;;;1.80;79.40;;;;;;5012811;28;20025;-77
2024/04/06 00:29:35;;;;;;;6.43;4.28;;;1.70;79.60;;;;;;5012925;28;20029;-77
2024/04/06 00:32:01;;;;;;;6.60;3.30;;;1.80;79.60;;;;;;5012797;28;20040;-78
2024/04/06 00:34:27;;;;;;;8.85;4.93;;;1.80;79.60;;;;;;5012794;28;20032;-77
2024/04/06 00:36:54;;;;;;;12.32;4.95;;;1.70;79.90;;;;;;4995361;28;20026;-79
2024/04/06 00:39:20;;;;;;;;;;;1.70;80.00;;;;;;5013270;28;20487;-77
2024/04/06 00:41:46;;;;;;;7.03;4.57;;;1.80;79.80;;;;;;5012644;28;19913;-77
2024/04/06 00:44:12;;;;;;;8.85;4.40;;;1.80;80.00;;;;;;5012711;28;20526;-76
2024/04/06 00:46:38;;;;;;;9.90;4.73;;;1.70;80.20;;;;;;5013179;28;20018;-76
2024/04/06 00:49:04;;;;;;;7.53;4.47;;;1.70;80.40;;;;;;5013171;28;20108;-77
2024/04/06 00:51:30;;;;;;;9.20;3.97;;;1.70;80.70;;;;;;5012472;28;20022;-76
2024/04/06 00:53:56;;;;;;;6.57;4.70;;;1.70;80.70;;;;;;5012406;28;20029;-78
2024/04/06 00:56:22;;;;;;;8.93;4.72;;;1.70;80.80;;;;;;5001314;28;20396;-77
2024/04/06 00:58:47;;;;;;;6.43;4.63;;;1.70;81.00;;;;;;5005193;28;20033;-75
2024/04/06 01:01:13;;;;;;;7.70;5.05;;;1.80;81.10;;;;;;5012441;28;20018;-76
2024/04/06 01:03:39;;;;;;;10.23;4.43;;;1.80;81.10;;;;;;5012039;28;20117;-79
2024/04/06 01:06:08;;;;;;;8.13;5.00;;;1.80;81.20;;;;;;4994633;28;20022;-77
2024/04/06 01:08:34;;;;;;;6.65;4.35;;;1.90;81.30;;;;;;5001395;28;20475;-78
2024/04/06 01:11:00;;;;;;;8.90;4.75;;;1.90;81.10;;;;;;5012253;28;20068;-76
2024/04/06 01:13:26;;;;;;;7.32;4.18;;;1.80;81.30;;;;;;5012153;28;20026;-78
2024/04/06 01:15:52;;;;;;;9.52;5.32;;;1.80;81.70;;;;;;5012027;28;20566;-77
2024/04/06 01:18:18;;;;;;;6.28;5.60;;;1.70;81.90;;;;;;5011970;28;20125;-77
2024/04/06 01:20:46;;;;;;;5.97;4.80;;;1.80;82.20;;;;;;5012051;28;20140;-76
2024/04/06 01:23:12;;;;;;;5.57;3.88;;;1.80;82.30;;;;;;5010238;28;20014;-79
2024/04/06 01:25:38;;;;;;;8.40;4.90;;;1.70;82.60;;;;;;5006970;28;20167;-76
2024/04/06 01:28:04;;;;;;;7.40;4.97;;;1.70;82.60;;;;;;5011942;28;20063;-77
2024/04/06 01:30:30;;;;;;;10.55;5.97;;;1.70;82.90;;;;;;5012055;28;20057;-76
2024/04/06 01:32:55;;;;;;;11.68;5.18;;;1.70;83.00;;;;;;4997753;28;20096;-76
2024/04/06 01:35:21;;;;;;;12.35;5.70;;;1.70;83.10;;;;;;5016100;28;20498;-77
2024/04/06 01:37:48;;;;;;;11.43;5.85;;;1.70;83.30;;;;;;5016002;28;20088;-79
2024/04/06 01:40:14;;;;;;;8.02;5.45;;;1.70;83.40;;;;;;5016663;28;20022;-78
2024/04/06 01:42:40;;;;;;;8.10;6.20;;;1.80;83.30;;;;;;5015881;28;20032;-77
2024/04/06 01:45:06;;;;;;;8.95;6.22;;;1.90;83.20;;;;;;5015839;28;20096;-77
2024/04/06 01:47:32;;;;;;;7.43;5.00;;;2.00;83.10;;;;;;5015913;28;20375;-77
2024/04/06 01:50:03;;;;;;;8.43;6.20;;;2.00;82.90;;;;;;5002119;28;20028;-77
2024/04/06 01:52:28;;;;;;;10.27;5.47;;;2.00;83.00;;;;;;4998222;28;20087;-78
2024/04/06 01:54:55;;;;;;;9.13;6.15;;;2.00;83.00;;;;;;4997709;28;20022;-77
2024/04/06 01:57:21;;;;;;;10.80;5.53;;;2.00;83.10;;;;;;4994722;28;20100;-76
2024/04/06 01:59:47;;;;;;;7.40;6.05;;;2.00;83.10;;;;;;4994793;28;20026;-77
2024/04/06 02:02:13;;;;;;;11.20;6.88;;;2.00;83.20;;;;;;5015724;28;20520;-77
2024/04/06 02:04:42;;;;;;;8.32;6.05;;;1.90;83.40;;;;;;4997633;28;20565;-77
2024/04/06 02:07:08;;;;;;;8.95;5.28;;;1.90;83.60;;;;;;5015528;28;20097;-78
2024/04/06 02:09:34;;;;;;;9.60;6.40;;;1.90;83.70;;;;;;5015420;28;20060;-78
2024/04/06 02:11:59;;;;;;;10.65;6.40;;;1.90;84.60;;;;;;4997614;28;20049;-79
2024/04/06 02:14:25;;;;;;;9.60;5.93;;;1.90;84.20;;;;;;5016024;28;20032;-76
2024/04/06 02:16:51;;;;;;;11.27;6.65;;;1.90;84.10;;;;;;5015352;28;20490;-79
2024/04/06 02:19:17;;;;;;;11.88;6.93;;;1.80;84.40;;;;;;4999999;28;20149;-77
2024/04/06 02:21:42;;;;;;;11.48;5.88;;;1.80;84.50;;;;;;5015032;28;20029;-78
2024/04/06 02:24:08;;;;;;;9.38;6.68;;;1.90;84.60;;;;;;5015164;28;20887;-76
2024/04/06 02:26:34;;;;;;;15.15;7.43;;;1.90;84.80;;;;;;5018522;28;20025;-77
2024/04/06 02:29:00;;;;;;;10.60;6.70;;;1.80;84.80;;;;;;5014935;28;20093;-77
2024/04/06 02:31:27;;;;;;;10.07;6.65;;;1.80;84.90;;;;;;5015100;28;20026;-78
2024/04/06 02:33:53;;;;;;;10.50;6.68;;;1.90;85.10;;;;;;5015075;28;20398;-75
2024/04/06 02:36:19;;;;;;;11.45;6.72;;;1.90;85.20;;;;;;5014922;28;20057;-78
2024/04/06 02:38:47;;;;;;;12.13;7.53;;;2.00;85.00;;;;;;5014822;28;20479;-76
2024/04/06 02:41:13;;;;;;;12.48;7.30;;;2.10;85.10;;;;;;5014874;28;20026;-79
2024/04/06 02:43:39;;;;;;;9.13;5.63;;;2.10;85.00;;;;;;5013611;28;20038;-76
2024/04/06 02:46:04;;;;;;;11.23;7.88;;;2.10;84.80;;;;;;5014629;28;20072;-78
2024/04/06 02:48:30;;;;;;;12.35;7.47;;;2.10;84.80;;;;;;5014816;28;20467;-78
2024/04/06 02:50:56;;;;;;;11.80;7.55;;;2.10;84.80;;;;;;4994670;28;20026;-77
2024/04/06 02:53:22;;;;;;;13.90;7.78;;;2.20;84.70;;;;;;5005723;28;20026;-77
2024/04/06 02:55:48;;;;;;;14.63;7.88;;;2.20;84.70;;;;;;5007382;28;20337;-77
2024/04/06 02:58:13;;;;;;;14.93;7.72;;;2.20;84.80;;;;;;5014583;28;20032;-77
2024/04/06 03:00:39;;;;;;;10.55;7.38;;;2.30;84.70;;;;;;5014612;28;20033;-76
2024/04/06 03:03:05;;;;;;;15.45;8.05;;;2.30;84.40;;;;;;5014419;28;20075;-79
2024/04/06 03:05:31;;;;;;;9.02;6.63;;;2.30;84.60;;;;;;5014447;28;20034;-80
2024/04/06 03:07:57;;;;;;;13.40;7.95;;;2.20;84.60;;;;;;5014544;28;20043;-78
2024/04/06 03:10:23;;;;;;;14.07;8.43;;;2.10;84.90;;;;;;5014417;28;20033;-78
2024/04/06 03:12:49;;;;;;;12.07;7.30;;;2.00;85.60;;;;;;5009846;28;20028;-78
2024/04/06 03:15:14;;;;;;;14.88;8.25;;;2.00;85.90;;;;;;5003109;28;20036;-77
2024/04/06 03:17:40;;;;;;;12.48;8.18;;;2.00;86.10;;;;;;5014113;28;20121;-78
2024/04/06 03:20:08;;;;;;;16.40;9.43;;;2.00;86.20;;;;;;5014364;28;20069;-78
2024/04/06 03:22:34;;;;;;;;;;;2.00;86.20;;;;;;5014793;28;20040;-76
2024/04/06 03:24:59;;;;;;;14.40;8.52;;;2.10;86.30;;;;;;5014006;28;20358;-77
2024/04/06 03:27:26;;;;;;;14.60;9.63;;;2.20;86.40;;;;;;5014136;28;20105;-79
2024/04/06 03:29:51;;;;;;;16.50;8.88;;;2.20;86.40;;;;;;5010434;28;20026;-78
2024/04/06 03:32:17;;;;;;;13.60;8.52;;;2.10;86.70;;;;;;5013820;28;20100;-77
2024/04/06 03:34:43;;;;;;;13.63;8.82;;;2.10;87.00;;;;;;5013933;28;20051;-78
2024/04/06 03:37:09;;;;;;;13.43;7.97;;;2.10;87.20;;;;;;4996056;28;20497;-77
2024/04/06 03:39:35;;;;;;;18.15;10.00;;;2.10;87.40;;;;;;5013922;28;20030;-78
2024/04/06 03:42:00;;;;;;;14.55;8.18;;;2.10;87.70;;;;;;5013740;28;20022;-78
2024/04/06 03:44:27;;;;;;;13.65;8.05;;;2.10;88.00;;;;;;5013612;28;20120;-77
2024/04/06 03:46:52;;;;;;;15.35;8.27;;;2.10;88.10;;;;;;4994916;28;20030;-78
2024/04/06 03:49:18;;;;;;;11.35;8.82;;;2.10;88.30;;;;;;4995948;28;20184;-78
2024/04/06 03:51:44;;;;;;;13.70;9.65;;;2.10;88.50;;;;;;5016064;28;20022;-78
2024/04/06 03:54:10;;;;;;;14.07;8.82;;;2.20;88.50;;;;;;5008799;28;20097;-78
2024/04/06 03:56:37;;;;;;;16.52;8.95;;;2.20;88.70;;;;;;5013635;28;20390;-78
2024/04/06 03:59:03;;;;;;;19.63;10.33;;;2.30;88.70;;;;;;5013627;28;20022;-76
2024/04/06 04:01:28;;;;;;;14.82;9.60;;;2.30;88.60;;;;;;5010864;28;20026;-79
2024/04/06 04:03:57;;;;;;;14.45;10.63;;;2.40;88.60;;;;;;5006970;28;20045;-78
2024/04/06 04:06:23;;;;;;;16.80;10.43;;;2.30;88.70;;;;;;5015593;28;20073;-78
2024/04/06 04:08:48;;;;;;;13.07;10.07;;;2.30;89.20;;;;;;4995723;28;20034;-76
2024/04/06 04:11:14;;;;;;;18.85;11.07;;;2.20;89.40;;;;;;4995401;28;20116;-76
2024/04/06 04:13:40;;;;;;;14.10;10.20;;;2.20;89.70;;;;;;5013378;28;20014;-78
2024/04/06 04:16:07;;;;;;;17.85;10.70;;;2.10;89.80;;;;;;4993582;28;20459;-79
2024/04/06 04:18:32;;;;;;;14.43;9.27;;;2.10;90.00;;;;;;5002196;28;20038;-78
2024/04/06 04:20:58;;;;;;;18.75;10.55;;;2.10;90.10;;;;;;4995507;28;20764;-77
2024/04/06 04:23:24;;;;;;;16.17;9.80;;;2.10;90.20;;;;;;5012735;28;20069;-79
2024/04/06 04:25:50;;;;;;;16.33;9.45;;;2.10;90.30;;;;;;4995206;28;20061;-78
2024/04/06 04:28:16;;;;;;;17.50;10.80;;;2.10;90.50;;;;;;5012860;28;20021;-78
2024/04/06 04:30:42;;;;;;;21.65;11.57;;;2.10;90.60;;;;;;4995169;28;20036;-76
2024/04/06 04:33:08;;;;;;;18.20;11.40;;;2.10;90.80;;;;;;5012621;28;20160;-77
2024/04/06 04:35:34;;;;;;;19.75;10.65;;;2.20;90.80;;;;;;5012550;28;20117;-78
2024/04/06 04:37:59;;;;;;;17.38;11.23;;;2.30;90.70;;;;;;5012669;28;20029;-78
2024/04/06 04:40:25;;;;;;;21.27;12.88;;;2.30;90.90;;;;;;5012796;28;20025;-79
2024/04/06 04:42:51;;;;;;;20.42;11.60;;;2.30;91.00;;;;;;5012640;28;20041;-78
2024/04/06 04:45:17;;;;;;;20.52;11.57;;;2.30;91.20;;;;;;5012529;28;20049;-78
2024/04/06 04:47:43;;;;;;;20.67;12.82;;;2.40;91.20;;;;;;5012441;28;20014;-78
2024/04/06 04:50:09;;;;;;;20.83;13.25;;;2.40;91.20;;;;;;5012507;28;20101;-78
2024/04/06 04:52:36;;;;;;;23.10;11.97;;;2.50;91.30;;;;;;5010810;28;20023;-77
2024/04/06 04:55:02;;;;;;;17.58;12.52;;;2.70;91.30;;;;;;5012495;28;20294;-78
2024/04/06 04:57:29;;;;;;;20.07;14.03;;;2.80;91.20;;;;;;5012588;28;20101;-78
2024/04/06 04:59:54;;;;;;;19.67;11.57;;;2.90;91.00;;;;;;5012555;28;20036;-79
2024/04/06 05:02:20;;;;;;;25.25;15.30;;;2.80;91.00;;;;;;4994885;28;20113;-78
2024/04/06 05:04:46;;;;;;;19.40;13.57;;;2.90;91.10;;;;;;4994505;28;20067;-79
2024/04/06 05:07:12;;;;;;;20.60;11.30;;;3.00;91.00;;;;;;5011911;28;20428;-78
2024/04/06 05:09:38;;;;;;;19.45;12.10;;;2.80;90.70;;;;;;5012237;28;20064;-79
2024/04/06 05:12:04;;;;;;;17.45;10.55;;;2.70;91.00;;;;;;4994675;28;20049;-77
2024/04/06 05:14:30;;;;;;;20.60;13.27;;;2.50;91.20;;;;;;5007033;28;20027;-79
2024/04/06 05:16:56;;;;;;;17.60;10.45;;;2.50;91.40;;;;;;4986909;28;20109;-78
2024/04/06 05:19:22;;;;;;;16.65;10.88;;;2.50;91.50;;;;;;5011873;28;20463;-79
2024/04/06 05:21:48;;;;;;;20.98;12.70;;;2.40;91.60;;;;;;5012535;28;20032;-78
2024/04/06 05:24:14;;;;;;;20.13;13.27;;;2.40;91.80;;;;;;5013843;28;20060;-79
2024/04/06 05:26:44;;;;;;;19.50;14.18;;;2.50;91.80;;;;;;5011886;28;20449;-79
2024/04/06 05:29:10;;;;;;;20.75;13.18;;;2.60;91.70;;;;;;5012332;28;20383;-78
2024/04/06 05:31:36;;;;;;;25.58;13.93;;;2.70;91.60;;;;;;5011769;28;20096;-79
2024/04/06 05:34:11;;;;;;;23.48;13.50;;;2.80;91.50;;;;;;5011889;28;20109;-80
2024/04/06 05:36:37;;;;;;;22.50;13.85;;;2.90;91.80;;;;;;5012031;28;20026;-80
2024/04/06 05:39:04;;;;;;;22.13;13.48;;;3.00;91.40;;;;;;5011819;28;20025;-78
2024/04/06 05:41:30;;;;;;;19.92;13.07;;;2.90;91.40;;;;;;4994439;28;20053;-81
2024/04/06 05:43:56;;;;;;;22.45;16.23;;;3.10;91.40;;;;;;5014309;28;20064;-80
2024/04/06 05:46:22;;;;;;;24.45;16.80;;;3.10;91.40;;;;;;5011809;28;20029;-77
2024/04/06 05:48:47;;;;;;;24.38;16.80;;;3.30;91.50;;;;;;5011913;28;20029;-80
2024/04/06 05:51:13;;;;;;;22.00;12.80;;;3.40;91.30;;;;;;5004095;28;20025;-80
2024/04/06 05:53:40;;;;;;;26.80;15.20;;;3.50;91.10;;;;;;5002701;28;20030;-77
2024/04/06 05:56:08;;;;;;;24.88;14.32;;;3.30;91.30;;;;;;5011863;28;20025;-78
2024/04/06 05:58:35;;;;;;;26.15;15.70;;;3.40;91.30;;;;;;5011646;28;20026;-78
2024/04/06 06:01:00;;;;;;;23.07;13.00;;;3.30;91.40;;;;;;5011473;28;20030;-80
2024/04/06 06:03:26;;;;;;;24.35;14.23;;;3.30;91.60;;;;;;5011409;28;20081;-78
2024/04/06 06:05:52;;;;;;;24.60;15.73;;;3.30;91.60;;;;;;4984651;28;20018;-81
2024/04/06 06:08:18;;;;;;;19.38;12.23;;;3.40;91.90;;;;;;5010710;28;20065;-79
2024/04/06 06:10:44;;;;;;;24.23;13.95;;;3.40;91.80;;;;;;4994033;28;20029;-79
2024/04/06 06:13:10;;;;;;;25.73;15.65;;;3.30;92.10;;;;;;5011274;28;20022;-78
2024/04/06 06:15:36;;;;;;;24.42;13.18;;;3.30;92.50;;;;;;4992324;28;20022;-79
2024/04/06 06:18:01;;;;;;;21.85;13.20;;;3.50;92.60;;;;;;5012981;28;20030;-78
2024/04/06 06:20:27;;;;;;;23.25;13.82;;;3.50;92.40;;;;;;4997724;28;20034;-77
2024/04/06 06:22:53;;;;;;;22.17;13.52;;;3.30;92.40;;;;;;5015323;28;20026;-78
2024/04/06 06:25:19;;;;;;;25.13;13.98;;;3.30;92.60;;;;;;5027842;28;20483;-80
2024/04/06 06:27:45;;;;;;;22.65;13.70;;;3.30;92.90;;;;;;4999483;28;20033;-78
2024/04/06 06:30:10;;;;;;;25.58;14.05;;;3.40;92.50;;;;;;5014850;28;20353;-80
2024/04/06 06:32:37;;;;;;;24.77;15.50;;;3.30;92.50;;;;;;5014693;28;20045;-79
2024/04/06 06:35:03;;;;;;;20.90;12.95;;;3.50;92.80;;;;;;5015176;28;20083;-77
2024/04/06 06:37:29;;;;;;;26.60;14.25;;;3.80;92.60;;;;;;5014960;28;20364;-80
2024/04/06 06:39:54;;;;;;;23.83;14.27;;;3.90;92.10;;;;;;5015054;28;20037;-80
2024/04/06 06:42:20;;;;;;;21.98;14.98;;;3.90;91.80;;;;;;5014603;28;20097;-79
2024/04/06 06:44:46;;;;;;;22.35;14.50;;;4.00;91.80;;;;;;5014353;28;20060;-77
2024/04/06 06:47:12;;;;;;;27.80;14.82;;;4.10;91.40;;;;;;5014703;28;20022;-78
2024/04/06 06:49:37;;;;;;;22.48;15.15;;;4.10;91.20;;;;;;5012015;28;20036;-78
2024/04/06 06:52:04;;;;;;;19.55;12.80;;;4.10;91.00;;;;;;5004912;28;20125;-79
2024/04/06 06:54:29;;;;;;;24.85;16.17;;;4.00;90.90;;;;;;5015341;28;20061;-78
2024/04/06 06:56:55;;;;;;;25.25;12.93;;;4.10;91.10;;;;;;5014576;28;20471;-79
2024/04/06 06:59:21;;;;;;;19.15;11.25;;;4.30;90.80;;;;;;5014183;28;20022;-80
2024/04/06 07:01:47;;;;;;;21.52;12.13;;;4.50;90.60;;;;;;5003914;28;20037;-77
2024/04/06 07:04:15;;;;;;;23.27;12.48;;;4.40;90.00;;;;;;5015483;28;20037;-77
2024/04/06 07:06:41;;;;;;;26.55;13.65;;;4.30;90.20;;;;;;5011050;28;20105;-81
2024/04/06 07:09:07;;;;;;;25.88;15.68;;;4.30;90.30;;;;;;5027905;28;20036;-78
2024/04/06 07:11:33;;;;;;;25.08;16.10;;;4.30;90.40;;;;;;5016845;28;20018;-79
2024/04/06 07:13:59;;;;;;;26.58;16.23;;;4.50;90.30;;;;;;5016458;28;20026;-80
2024/04/06 07:16:28;;;;;;;20.92;13.18;;;4.60;90.00;;;;;;5014070;28;20030;-80
2024/04/06 07:18:54;;;;;;;23.02;14.40;;;4.50;89.80;;;;;;4996468;28;20050;-80
2024/04/06 07:21:20;;;;;;;23.83;15.10;;;4.40;90.10;;;;;;5014862;28;20026;-79
2024/04/06 07:23:46;;;;;;;24.65;14.35;;;4.50;90.30;;;;;;5014322;28;20413;-79
2024/04/06 07:26:12;;;;;;;25.40;17.45;;;4.80;90.20;;;;;;5014089;28;20025;-79
2024/04/06 07:28:37;;;;;;;27.38;15.98;;;5.10;90.00;;;;;;5013706;28;20037;-78
2024/04/06 07:31:07;;;;;;;22.92;14.10;;;5.40;89.10;;;;;;5013610;28;20045;-79
2024/04/06 07:33:33;;;;;;;31.05;16.65;;;5.40;88.10;;;;;;5013770;28;20022;-79
2024/04/06 07:35:59;;;;;;;24.10;15.98;;;5.40;88.10;;;;;;5012009;28;20049;-78
2024/04/06 07:38:28;;;;;;;25.23;15.52;;;5.70;88.00;;;;;;4991166;28;20065;-80
2024/04/06 07:41:01;;;;;;;20.42;13.52;;;5.70;87.30;;;;;;5014068;28;20475;-78
2024/04/06 07:43:27;;;;;;;25.55;15.82;;;5.70;86.80;;;;;;5013226;28;20026;-79
2024/04/06 07:45:53;;;;;;;25.95;16.70;;;5.50;87.20;;;;;;5013405;28;20022;-79
2024/04/06 07:48:19;;;;;;;26.95;16.75;;;5.60;87.80;;;;;;5010056;28;20399;-80
2024/04/06 07:50:45;;;;;;;25.45;16.77;;;5.90;87.50;;;;;;4990538;28;20026;-79
2024/04/06 07:53:12;;;;;;;22.80;16.00;;;6.00;86.80;;;;;;4988839;28;20034;-80
2024/04/06 07:55:38;;;;;;;28.30;15.55;;;6.00;86.50;;;;;;5000451;28;20089;-78
2024/04/06 07:58:04;;;;;;;19.63;14.38;;;5.90;86.50;;;;;;5006485;28;20030;-78
2024/04/06 08:00:31;;;;;;;23.85;15.73;;;6.00;86.40;;;;;;5008231;28;20038;-78
2024/04/06 08:02:56;;;;;;;28.70;15.18;;;5.90;86.40;;;;;;5006531;28;20025;-79
2024/04/06 08:05:22;;;;;;;25.15;15.10;;;5.90;86.40;;;;;;5013271;28;20168;-77
2024/04/06 08:07:48;;;;;;;21.60;16.45;;;5.80;86.80;;;;;;5013489;28;20113;-78
2024/04/06 08:10:16;;;;;;;28.63;17.50;;;6.00;87.30;;;;;;5008064;28;20088;-80
2024/04/06 08:12:45;;;;;;;28.00;15.73;;;6.40;86.60;;;;;;5006899;28;20064;-80
2024/04/06 08:15:12;;;;;;;27.27;16.73;;;6.70;85.10;;;;;;5010647;28;20475;-80
2024/04/06 08:17:40;;;;;;;20.97;14.57;;;6.80;85.00;;;;;;5011689;28;20563;-81
2024/04/06 08:20:08;;;;;;;23.75;15.02;;;6.80;84.20;;;;;;5010924;28;20096;-80
2024/04/06 08:22:38;;;;;;;30.77;14.77;;;6.50;84.80;;;;;;5012688;28;20064;-79
2024/04/06 08:25:05;;;;;;;24.77;15.57;;;6.50;85.10;;;;;;4994403;28;20052;-81
2024/04/06 08:27:34;;;;;;;23.50;15.88;;;6.40;85.80;;;;;;4996017;28;20026;-78
2024/04/06 08:30:04;;;;;;;23.25;13.30;;;6.40;85.70;;;;;;5012792;28;20061;-80
2024/04/06 08:32:31;;;;;;;22.42;14.25;;;6.60;85.80;;;;;;5012359;28;20014;-81
2024/04/06 08:34:58;;;;;;;28.33;15.23;;;6.60;85.50;;;;;;5012356;28;20014;-79
2024/04/06 08:37:24;;;;;;;25.20;16.13;;;6.60;85.40;;;;;;5013083;28;20805;-77
2024/04/06 08:39:50;;;;;;;21.40;14.85;;;6.70;85.30;;;;;;5012748;28;20101;-79
2024/04/06 08:42:19;;;;;;;24.58;14.98;;;6.60;85.30;;;;;;5011536;28;20056;-78
2024/04/06 08:44:45;;;;;;;26.30;15.68;;;6.50;85.80;;;;;;5012607;28;20438;-79
2024/04/06 08:47:19;;;;;;;21.17;15.32;;;6.70;86.20;;;;;;5012674;28;20017;-80
2024/04/06 08:49:45;;;;;;;23.75;15.70;;;6.80;85.60;;;;;;4994426;28;20029;-80
2024/04/06 08:52:11;;;;;;;23.75;13.88;;;7.00;85.70;;;;;;5011818;28;20479;-79
2024/04/06 08:54:37;;;;;;;25.60;15.50;;;7.10;85.00;;;;;;5012344;28;20026;-81
2024/04/06 08:57:04;;;;;;;24.20;14.30;;;7.10;84.70;;;;;;5011930;28;20414;-79
2024/04/06 08:59:31;;;;;;;29.73;17.13;;;7.00;84.50;;;;;;5011990;28;20033;-79
2024/04/06 09:01:57;;;;;;;24.25;16.42;;;6.90;85.00;;;;;;5012286;28;20164;-80
2024/04/06 09:04:23;;;;;;;27.80;18.35;;;7.10;84.90;;;;;;4987613;28;20124;-81
2024/04/06 09:06:48;;;;;;;25.45;16.73;;;7.20;85.00;;;;;;5012686;28;20018;-78
2024/04/06 09:09:15;;;;;;;27.38;14.07;;;7.30;84.70;;;;;;5012389;28;20026;-79
2024/04/06 09:11:44;;;;;;;26.35;15.85;;;7.60;84.20;;;;;;4994535;28;20117;-80
2024/04/06 09:14:11;;;;;;;28.23;15.02;;;7.80;84.30;;;;;;5012002;28;20057;-80
2024/04/06 09:16:38;;;;;;;23.67;14.73;;;8.10;83.40;;;;;;5012021;28;20022;-81
2024/04/06 09:19:04;;;;;;;23.50;15.07;;;8.40;82.70;;;;;;5011464;28;20475;-79
2024/04/06 09:21:30;;;;;;;18.98;14.77;;;8.20;81.60;;;;;;4998569;28;20121;-78
2024/04/06 09:23:57;;;;;;;19.55;14.18;;;8.00;82.20;;;;;;5011413;28;20491;-79
2024/04/06 09:26:23;;;;;;;22.85;15.70;;;7.60;82.60;;;;;;4993768;28;20466;-78
2024/04/06 09:28:53;;;;;;;24.27;14.20;;;7.50;83.90;;;;;;5011604;28;20080;-78
2024/04/06 09:31:25;;;;;;;21.88;14.10;;;7.60;83.60;;;;;;5011889;28;20395;-78
2024/04/06 09:33:55;;;;;;;24.02;15.23;;;7.50;83.90;;;;;;4994778;28;20103;-81
2024/04/06 09:36:22;;;;;;;27.42;16.98;;;7.50;83.90;;;;;;5012141;28;20033;-79
2024/04/06 09:38:49;;;;;;;23.77;16.15;;;7.40;84.10;;;;;;5012001;28;20097;-79
2024/04/06 09:41:16;;;;;;;25.70;15.85;;;7.50;84.30;;;;;;5012001;28;20053;-79
2024/04/06 09:43:49;;;;;;;28.15;16.48;;;7.50;84.10;;;;;;5011646;28;20475;-78
2024/04/06 09:46:16;;;;;;;25.00;15.07;;;7.60;84.10;;;;;;5008094;28;20026;-76
2024/04/06 09:48:42;;;;;;;33.00;15.13;;;7.70;83.90;;;;;;4994532;28;20022;-78
2024/04/06 09:51:09;;;;;;;22.65;14.77;;;7.60;84.20;;;;;;5011438;28;20494;-79
2024/04/06 09:53:36;;;;;;;27.75;16.52;;;7.60;84.50;;;;;;5014629;28;20109;-81
2024/04/06 09:56:04;;;;;;;25.50;16.42;;;7.60;84.50;;;;;;4988529;28;20108;-79
2024/04/06 09:58:32;;;;;;;26.83;16.35;;;7.80;84.30;;;;;;5008010;28;20079;-80
2024/04/06 10:01:16;;;;;;;26.35;16.65;;;7.70;84.40;;;;;;4997913;28;20030;-80
2024/04/06 10:03:45;;;;;;;18.25;12.13;;;7.90;84.60;;;;;;4997861;28;20073;-81
2024/04/06 10:06:14;;;;;;;22.17;15.30;;;7.80;84.10;;;;;;5015270;28;20084;-81
2024/04/06 10:09:00;;;;;;;30.90;16.95;;;7.50;84.90;;;;;;5015210;28;20026;-82
2024/04/06 10:11:29;;;;;;;27.17;14.18;;;7.30;85.90;;;;;;5012398;28;20076;-81
2024/04/06 10:13:58;;;;;;;25.38;14.35;;;7.30;86.00;;;;;;5018025;28;20018;-89
2024/04/06 10:16:28;;;;;;;25.20;15.55;;;7.40;86.40;;;;;;5016830;28;20451;-86
2024/04/06 10:18:59;;;;;;;18.77;12.80;;;7.50;85.80;;;;;;5006094;28;20147;-85
2024/04/06 10:21:38;;;;;;;23.73;15.60;;;7.30;85.80;;;;;;5021329;28;20056;-85
2024/04/06 10:24:13;;;;;;;24.00;12.90;;;7.20;86.60;;;;;;5006145;28;20068;-82
2024/04/06 10:26:46;;;;;;;21.95;13.75;;;7.20;86.30;;;;;;5016204;28;20122;-86
2024/04/06 10:29:15;;;;;;;25.45;15.05;;;7.20;86.70;;;;;;5016242;28;20026;-85
2024/04/06 10:31:42;;;;;;;19.58;12.90;;;7.20;86.80;;;;;;5016840;28;20029;-84
2024/04/06 10:34:09;;;;;;;26.10;14.88;;;7.10;86.70;;;;;;5017451;28;20098;-86
2024/04/06 10:36:35;;;;;;;28.57;17.70;;;7.00;87.20;;;;;;5015712;28;20055;-85
2024/04/06 10:39:07;;;;;;;20.67;13.10;;;7.10;87.40;;;;;;5016348;28;20366;-84
2024/04/06 10:41:34;;;;;;;25.48;15.73;;;7.20;86.90;;;;;;5011780;28;20022;-84
2024/04/06 10:44:01;;;;;;;26.98;14.77;;;7.20;86.90;;;;;;4992376;28;20056;-86
2024/04/06 10:46:27;;;;;;;25.10;15.10;;;7.30;86.90;;;;;;5016787;28;20033;-86
2024/04/06 10:48:54;;;;;;;26.15;15.10;;;7.30;87.00;;;;;;5009715;28;20105;-83
2024/04/06 10:51:21;;;;;;;29.23;16.17;;;7.30;88.00;;;;;;5014712;28;20036;-84
2024/04/06 10:53:47;;;;;;;23.73;16.67;;;7.50;88.60;;;;;;5017769;28;20030;-86
2024/04/06 10:56:13;;;;;;;30.20;16.25;;;7.60;88.50;;;;;;5016297;28;20018;-83
2024/04/06 10:58:39;;;;;;;24.92;15.43;;;7.90;88.90;;;;;;5015750;28;20109;-85
2024/04/06 11:01:23;;;;;;;28.05;17.05;;;8.00;87.70;;;;;;5018418;28;20041;-85
2024/04/06 11:03:50;;;;;;;26.00;17.35;;;7.90;87.40;;;;;;5000002;28;20026;-86
2024/04/06 11:06:16;;;;;;;26.38;16.40;;;7.90;88.00;;;;;;5007350;28;20026;-85
2024/04/06 11:08:42;;;;;;;25.73;16.75;;;7.90;87.90;;;;;;4995512;28;20060;-85
2024/04/06 11:11:12;;;;;;;30.92;17.85;;;7.70;88.40;;;;;;5025066;28;20033;-86
2024/04/06 11:13:39;;;;;;;21.52;14.43;;;7.80;89.30;;;;;;4995994;28;20025;-84
2024/04/06 11:16:06;;;;;;;26.80;16.80;;;7.90;88.40;;;;;;5015541;28;20030;-85
2024/04/06 11:18:58;;;;;;;25.83;15.55;;;7.90;88.10;;;;;;5014881;28;20407;-84
2024/04/06 11:21:24;;;;;;;27.17;15.73;;;7.90;87.50;;;;;;5006507;28;20037;-83
2024/04/06 11:23:50;;;;;;;28.58;16.77;;;8.00;87.40;;;;;;5017462;28;20426;-84
2024/04/06 11:26:20;;;;;;;29.70;15.82;;;8.10;87.00;;;;;;5023760;28;20037;-83
2024/04/06 11:28:46;;;;;;;25.17;15.68;;;8.10;86.20;;;;;;5003670;28;20014;-84
2024/04/06 11:31:12;;;;;;;26.67;16.58;;;8.20;85.80;;;;;;5016458;28;20056;-86
2024/04/06 11:33:39;;;;;;;30.05;17.08;;;8.30;85.70;;;;;;5007052;28;20073;-87
2024/04/06 11:36:09;;;;;;;23.13;15.65;;;8.50;85.50;;;;;;5009948;28;20025;-88
2024/04/06 11:38:35;;;;;;;24.85;15.00;;;8.50;84.90;;;;;;5014391;28;20032;-85
2024/04/06 11:41:00;;;;;;;26.45;17.40;;;8.50;84.00;;;;;;5024421;28;20069;-85
2024/04/06 11:43:26;;;;;;;24.02;16.33;;;8.70;84.50;;;;;;5010528;28;20030;-83
2024/04/06 11:45:52;;;;;;;22.98;14.73;;;9.00;84.00;;;;;;4997521;28;20037;-86
2024/04/06 11:48:19;;;;;;;23.85;14.80;;;9.00;82.30;;;;;;5015995;28;20022;-88
2024/04/06 11:50:45;;;;;;;29.67;16.55;;;9.00;81.90;;;;;;4996936;28;20450;-86
2024/04/06 11:53:10;;;;;;;31.17;14.50;;;9.00;82.20;;;;;;4993128;28;20022;-88
2024/04/06 11:55:37;;;;;;;26.90;16.02;;;9.20;82.60;;;;;;4990578;28;20084;-90
2024/04/06 11:58:04;;;;;;;22.83;15.82;;;9.50;81.90;;;;;;4995629;28;20112;-83
2024/04/06 12:00:33;;;;;;;29.30;17.42;;;9.80;80.90;;;;;;5014009;28;20033;-84
2024/04/06 12:02:59;;;;;;;23.45;14.50;;;9.80;80.60;;;;;;5009864;28;20445;-83
2024/04/06 12:05:24;;;;;;;30.45;15.93;;;9.80;79.30;;;;;;5013701;28;20126;-83
2024/04/06 12:07:51;;;;;;;20.92;14.25;;;9.80;79.80;;;;;;5013108;28;20022;-82
2024/04/06 12:10:17;;;;;;;23.27;14.88;;;9.70;79.10;;;;;;4996001;28;20141;-83
2024/04/06 12:12:43;;;;;;;24.50;15.05;;;9.70;79.70;;;;;;5015829;28;20077;-84
2024/04/06 12:15:08;;;;;;;22.58;13.60;;;9.60;79.20;;;;;;5013432;28;20030;-84
2024/04/06 12:17:34;;;;;;;21.98;15.35;;;9.60;79.30;;;;;;5014178;28;20022;-86
2024/04/06 12:20:00;;;;;;;18.88;13.07;;;9.60;79.30;;;;;;5015323;28;20103;-84
2024/04/06 12:22:27;;;;;;;24.88;14.82;;;9.60;78.90;;;;;;4995185;28;20049;-83
2024/04/06 12:24:53;;;;;;;28.37;15.90;;;9.60;78.80;;;;;;5016249;28;20044;-85
2024/04/06 12:27:19;;;;;;;30.27;18.67;;;9.40;78.80;;;;;;4994359;28;20041;-87
2024/04/06 12:29:45;;;;;;;22.05;13.95;;;9.50;79.50;;;;;;4997842;28;20441;-87
2024/04/06 12:32:11;;;;;;;20.33;15.02;;;9.60;78.90;;;;;;5014907;28;20101;-88
2024/04/06 12:34:39;;;;;;;20.30;14.32;;;9.50;78.80;;;;;;5014100;28;20029;-88
2024/04/06 12:37:09;;;;;;;27.35;17.27;;;9.50;79.00;;;;;;5028969;28;20036;-88
2024/04/06 12:39:37;;;;;;;27.38;16.38;;;9.70;79.40;;;;;;5015635;28;20076;-85